OEFEE LIPV-LIPZ
Flight info
| Callsign | OEFEE |
|---|---|
| Flight time | N/A |
| Altitude | 0 |
| Route | CASAVIO |
| Aircraft | DA42/L-S/C |
Departure
| Time | 2026-05-08 16:59 |
|---|---|
| Airport | Venice-Lido Giovanni Nicelli Airfield (LIPV) |
Arrival
| Time | N/A |
|---|---|
| Airport | Venice Marco Polo Airport (LIPZ) |
| Time | Latitude | Longitude | Altitude | Speed | Heading |
|---|---|---|---|---|---|
| 2026-05-08 16:58 | 45.47883 | 12.36673 | 966 ft | 94 kts | 39° |
| 2026-05-08 16:59 | 45.48473 | 12.36954 | 967 ft | 90 kts | 354° |
| 2026-05-08 16:59 | 45.49052 | 12.36687 | 967 ft | 87 kts | 319° |
| 2026-05-08 16:59 | 45.49315 | 12.35946 | 969 ft | 85 kts | 272° |
| 2026-05-08 16:59 | 45.49107 | 12.35182 | 977 ft | 85 kts | 225° |
| 2026-05-08 17:00 | 45.48659 | 12.34628 | 957 ft | 88 kts | 217° |
| 2026-05-08 17:00 | 45.48125 | 12.34114 | 849 ft | 98 kts | 209° |
| 2026-05-08 17:00 | 45.47497 | 12.33645 | 739 ft | 106 kts | 206° |
| 2026-05-08 17:00 | 45.47109 | 12.32872 | 755 ft | 96 kts | 267° |
| 2026-05-08 17:01 | 45.47415 | 12.32023 | 487 ft | 107 kts | 323° |
| 2026-05-08 17:01 | 45.48116 | 12.31779 | 382 ft | 90 kts | 22° |
| 2026-05-08 17:01 | 45.48425 | 12.32437 | 215 ft | 73 kts | 51° |
| 2026-05-08 17:01 | 45.48790 | 12.32977 | 145 ft | 81 kts | 42° |
| 2026-05-08 17:02 | 45.49216 | 12.33523 | 79 ft | 80 kts | 42° |
| 2026-05-08 17:02 | 45.49611 | 12.34030 | 5 ft | 70 kts | 42° |
| 2026-05-08 17:02 | 45.50043 | 12.34581 | 85 ft | 91 kts | 40° |
| 2026-05-08 17:02 | 45.50514 | 12.35196 | 324 ft | 92 kts | 38° |
| 2026-05-08 17:03 | 45.51075 | 12.35342 | 659 ft | 88 kts | 329° |
| 2026-05-08 17:03 | 45.51530 | 12.34697 | 917 ft | 94 kts | 307° |
| 2026-05-08 17:03 | 45.51867 | 12.33837 | 1152 ft | 100 kts | 288° |
| 2026-05-08 17:03 | 45.51770 | 12.32947 | 1242 ft | 96 kts | 227° |
| 2026-05-08 17:04 | 45.51268 | 12.32296 | 1223 ft | 96 kts | 240° |
| 2026-05-08 17:04 | 45.51405 | 12.31503 | 1292 ft | 94 kts | 332° |
| 2026-05-08 17:04 | 45.51999 | 12.31740 | 1313 ft | 99 kts | 58° |
| 2026-05-08 17:04 | 45.51880 | 12.32576 | 1387 ft | 95 kts | 152° |
| 2026-05-08 17:05 | 45.51317 | 12.32373 | 1433 ft | 93 kts | 240° |
| 2026-05-08 17:05 | 45.51415 | 12.31512 | 1451 ft | 96 kts | 318° |
| 2026-05-08 17:05 | 45.52057 | 12.31362 | 1472 ft | 102 kts | 22° |
| 2026-05-08 17:05 | 45.52456 | 12.32143 | 1520 ft | 101 kts | 87° |
| 2026-05-08 17:06 | 45.52143 | 12.32970 | 1544 ft | 103 kts | 157° |
| 2026-05-08 17:06 | 45.51553 | 12.32582 | 1459 ft | 109 kts | 253° |
| 2026-05-08 17:06 | 45.51840 | 12.31678 | 1426 ft | 109 kts | 336° |
| 2026-05-08 17:06 | 45.52510 | 12.31961 | 1430 ft | 107 kts | 57° |
| 2026-05-08 17:07 | 45.52478 | 12.32954 | 1394 ft | 109 kts | 128° |
| 2026-05-08 17:07 | 45.51795 | 12.33341 | 1329 ft | 110 kts | 193° |
| 2026-05-08 17:07 | 45.51286 | 12.32628 | 1275 ft | 109 kts | 260° |
| 2026-05-08 17:07 | 45.51549 | 12.31735 | 1293 ft | 105 kts | 329° |
| 2026-05-08 17:08 | 45.52255 | 12.31877 | 1224 ft | 110 kts | 48° |
| 2026-05-08 17:08 | 45.52257 | 12.32869 | 1142 ft | 115 kts | 135° |
| 2026-05-08 17:08 | 45.51562 | 12.32898 | 1131 ft | 106 kts | 229° |
| 2026-05-08 17:08 | 45.51595 | 12.31955 | 1107 ft | 105 kts | 317° |
| 2026-05-08 17:09 | 45.52239 | 12.31976 | 1152 ft | 100 kts | 50° |
| 2026-05-08 17:09 | 45.52226 | 12.32883 | 1140 ft | 101 kts | 134° |
| 2026-05-08 17:09 | 45.51591 | 12.32991 | 1105 ft | 101 kts | 218° |
| 2026-05-08 17:09 | 45.51454 | 12.32106 | 1114 ft | 96 kts | 300° |
| 2026-05-08 17:10 | 45.52020 | 12.31769 | 1143 ft | 96 kts | 14° |
| 2026-05-08 17:10 | 45.52385 | 12.32458 | 1164 ft | 95 kts | 97° |
| 2026-05-08 17:10 | 45.51972 | 12.33090 | 1185 ft | 93 kts | 173° |
| 2026-05-08 17:10 | 45.51377 | 12.32746 | 1094 ft | 101 kts | 233° |
| 2026-05-08 17:11 | 45.51272 | 12.31794 | 1070 ft | 101 kts | 294° |
| 2026-05-08 17:11 | 45.51853 | 12.31322 | 1031 ft | 105 kts | 10° |
| 2026-05-08 17:11 | 45.52264 | 12.32084 | 1034 ft | 103 kts | 98° |
| 2026-05-08 17:11 | 45.51784 | 12.32674 | 1038 ft | 99 kts | 184° |
| 2026-05-08 17:12 | 45.51232 | 12.32161 | 1000 ft | 101 kts | 239° |
| 2026-05-08 17:12 | 45.51139 | 12.31272 | 1132 ft | 87 kts | 287° |
| 2026-05-08 17:12 | 45.51488 | 12.30672 | 1253 ft | 76 kts | 337° |
| 2026-05-08 17:12 | 45.52014 | 12.30709 | 1402 ft | 82 kts | 29° |
| 2026-05-08 17:13 | 45.52371 | 12.31371 | 1480 ft | 93 kts | 76° |
| 2026-05-08 17:13 | 45.52295 | 12.32290 | 1482 ft | 98 kts | 121° |
| 2026-05-08 17:13 | 45.51764 | 12.32898 | 1486 ft | 101 kts | 166° |
| 2026-05-08 17:13 | 45.51072 | 12.32789 | 1483 ft | 104 kts | 211° |
| 2026-05-08 17:14 | 45.50638 | 12.31993 | 1485 ft | 105 kts | 257° |
| 2026-05-08 17:14 | 45.50519 | 12.30954 | 1484 ft | 107 kts | 263° |